sensor_id;sensor_type;location;lat;lon;timestamp;temperature;humidity
10282;DHT22;5186;59.472;18.048;2023-04-01T00:00:22;-3.90;99.90
10282;DHT22;5186;59.472;18.048;2023-04-01T00:02:48;-4.00;99.90
10282;DHT22;5186;59.472;18.048;2023-04-01T00:05:14;-4.00;99.90
10282;DHT22;5186;59.472;18.048;2023-04-01T00:07:41;-4.10;99.90
10282;DHT22;5186;59.472;18.048;2023-04-01T00:10:09;-4.00;99.90
10282;DHT22;5186;59.472;18.048;2023-04-01T00:12:36;-4.10;99.90
10282;DHT22;5186;59.472;18.048;2023-04-01T00:15:03;-4.10;99.90
10282;DHT22;5186;59.472;18.048;2023-04-01T00:17:29;-4.20;99.90
10282;DHT22;5186;59.472;18.048;2023-04-01T00:19:55;-4.20;99.90
10282;DHT22;5186;59.472;18.048;2023-04-01T00:22:21;-4.20;99.90
10282;DHT22;5186;59.472;18.048;2023-04-01T00:24:47;-4.30;99.90
10282;DHT22;5186;59.472;18.048;2023-04-01T00:27:13;-4.30;99.90
10282;DHT22;5186;59.472;18.048;2023-04-01T00:29:45;-4.30;99.90
10282;DHT22;5186;59.472;18.048;2023-04-01T00:32:11;-4.30;99.90
10282;DHT22;5186;59.472;18.048;2023-04-01T00:34:36;-4.30;99.90
10282;DHT22;5186;59.472;18.048;2023-04-01T00:37:03;-4.20;99.90
10282;DHT22;5186;59.472;18.048;2023-04-01T00:39:30;-4.30;99.90
10282;DHT22;5186;59.472;18.048;2023-04-01T00:41:57;-4.30;99.90
10282;DHT22;5186;59.472;18.048;2023-04-01T00:44:24;-4.30;99.90
10282;DHT22;5186;59.472;18.048;2023-04-01T00:46:50;-4.30;99.90
10282;DHT22;5186;59.472;18.048;2023-04-01T00:49:19;-4.30;99.90
10282;DHT22;5186;59.472;18.048;2023-04-01T00:51:47;-4.40;99.90
10282;DHT22;5186;59.472;18.048;2023-04-01T00:54:15;-4.40;99.90
10282;DHT22;5186;59.472;18.048;2023-04-01T00:57:04;-4.40;99.90
10282;DHT22;5186;59.472;18.048;2023-04-01T00:59:37;-4.50;99.90
10282;DHT22;5186;59.472;18.048;2023-04-01T01:02:05;-4.50;99.90
10282;DHT22;5186;59.472;18.048;2023-04-01T01:04:33;-4.60;99.90
10282;DHT22;5186;59.472;18.048;2023-04-01T01:12:39;-4.70;99.90
10282;DHT22;5186;59.472;18.048;2023-04-01T01:15:24;-4.70;99.90
10282;DHT22;5186;59.472;18.048;2023-04-01T01:17:58;-4.70;99.90
10282;DHT22;5186;59.472;18.048;2023-04-01T01:23:33;-4.70;99.90
10282;DHT22;5186;59.472;18.048;2023-04-01T01:31:25;-4.80;99.90
10282;DHT22;5186;59.472;18.048;2023-04-01T01:34:00;-4.70;99.90
10282;DHT22;5186;59.472;18.048;2023-04-01T01:36:33;-4.70;99.90
10282;DHT22;5186;59.472;18.048;2023-04-01T01:39:02;-4.80;99.90
10282;DHT22;5186;59.472;18.048;2023-04-01T01:41:29;-4.80;99.90
10282;DHT22;5186;59.472;18.048;2023-04-01T01:43:56;-4.80;99.90
10282;DHT22;5186;59.472;18.048;2023-04-01T01:46:26;-4.70;99.90
10282;DHT22;5186;59.472;18.048;2023-04-01T01:48:53;-4.80;99.90
10282;DHT22;5186;59.472;18.048;2023-04-01T01:51:21;-4.70;99.90
10282;DHT22;5186;59.472;18.048;2023-04-01T01:53:47;-4.80;99.90
10282;DHT22;5186;59.472;18.048;2023-04-01T01:56:12;-4.70;99.90
10282;DHT22;5186;59.472;18.048;2023-04-01T01:58:47;-4.70;99.90
10282;DHT22;5186;59.472;18.048;2023-04-01T02:01:22;-4.70;99.90
10282;DHT22;5186;59.472;18.048;2023-04-01T02:03:49;-4.70;99.90
10282;DHT22;5186;59.472;18.048;2023-04-01T02:06:18;-4.60;99.90
10282;DHT22;5186;59.472;18.048;2023-04-01T02:08:47;-4.60;99.90
10282;DHT22;5186;59.472;18.048;2023-04-01T02:11:25;-4.70;99.90
10282;DHT22;5186;59.472;18.048;2023-04-01T02:14:09;-4.80;99.90
10282;DHT22;5186;59.472;18.048;2023-04-01T02:16:39;-4.80;99.90
10282;DHT22;5186;59.472;18.048;2023-04-01T02:19:09;-4.80;99.90
10282;DHT22;5186;59.472;18.048;2023-04-01T02:21:37;-4.80;99.90
10282;DHT22;5186;59.472;18.048;2023-04-01T02:24:06;-4.70;99.90
10282;DHT22;5186;59.472;18.048;2023-04-01T02:26:34;-4.80;99.90
10282;DHT22;5186;59.472;18.048;2023-04-01T02:29:01;-4.80;99.90
10282;DHT22;5186;59.472;18.048;2023-04-01T02:31:29;-4.80;99.90
10282;DHT22;5186;59.472;18.048;2023-04-01T02:33:55;-4.90;99.90
10282;DHT22;5186;59.472;18.048;2023-04-01T02:36:21;-4.90;99.90
10282;DHT22;5186;59.472;18.048;2023-04-01T02:38:47;-4.90;99.90
10282;DHT22;5186;59.472;18.048;2023-04-01T02:41:15;-4.90;99.90
10282;DHT22;5186;59.472;18.048;2023-04-01T02:43:40;-4.80;99.90
10282;DHT22;5186;59.472;18.048;2023-04-01T02:46:06;-4.90;99.90
10282;DHT22;5186;59.472;18.048;2023-04-01T02:48:31;-4.90;99.90
10282;DHT22;5186;59.472;18.048;2023-04-01T02:50:57;-4.90;99.90
10282;DHT22;5186;59.472;18.048;2023-04-01T02:53:23;-4.90;99.90
10282;DHT22;5186;59.472;18.048;2023-04-01T02:55:49;-4.90;99.90
10282;DHT22;5186;59.472;18.048;2023-04-01T02:58:17;-5.00;99.90
10282;DHT22;5186;59.472;18.048;2023-04-01T03:00:43;-5.00;99.90
10282;DHT22;5186;59.472;18.048;2023-04-01T03:03:09;-5.00;99.90
10282;DHT22;5186;59.472;18.048;2023-04-01T03:05:34;-5.00;99.90
10282;DHT22;5186;59.472;18.048;2023-04-01T03:08:01;-5.00;99.90
10282;DHT22;5186;59.472;18.048;2023-04-01T03:10:26;-5.00;99.90
10282;DHT22;5186;59.472;18.048;2023-04-01T03:12:52;-5.00;99.90
10282;DHT22;5186;59.472;18.048;2023-04-01T03:15:18;-5.00;99.90
10282;DHT22;5186;59.472;18.048;2023-04-01T03:17:43;-5.00;99.90
10282;DHT22;5186;59.472;18.048;2023-04-01T03:20:10;-5.10;99.90
10282;DHT22;5186;59.472;18.048;2023-04-01T03:22:36;-5.00;99.90
10282;DHT22;5186;59.472;18.048;2023-04-01T03:25:03;-5.00;99.90
10282;DHT22;5186;59.472;18.048;2023-04-01T03:27:29;-5.10;99.90
10282;DHT22;5186;59.472;18.048;2023-04-01T03:29:54;-5.10;99.90
10282;DHT22;5186;59.472;18.048;2023-04-01T03:32:20;-5.20;99.90
10282;DHT22;5186;59.472;18.048;2023-04-01T03:34:46;-5.20;99.90
10282;DHT22;5186;59.472;18.048;2023-04-01T03:37:12;-5.20;99.90
10282;DHT22;5186;59.472;18.048;2023-04-01T03:39:37;-5.20;99.90
10282;DHT22;5186;59.472;18.048;2023-04-01T03:42:03;-5.20;99.90
10282;DHT22;5186;59.472;18.048;2023-04-01T03:44:32;-5.30;99.90
10282;DHT22;5186;59.472;18.048;2023-04-01T03:46:59;-5.30;99.90
10282;DHT22;5186;59.472;18.048;2023-04-01T03:49:25;-5.30;99.90
10282;DHT22;5186;59.472;18.048;2023-04-01T03:51:50;-5.30;99.90
10282;DHT22;5186;59.472;18.048;2023-04-01T03:54:16;-5.40;99.90
10282;DHT22;5186;59.472;18.048;2023-04-01T03:56:42;-5.40;99.90
10282;DHT22;5186;59.472;18.048;2023-04-01T03:59:08;-5.40;99.90
10282;DHT22;5186;59.472;18.048;2023-04-01T04:01:35;-5.40;99.90
10282;DHT22;5186;59.472;18.048;2023-04-01T04:04:00;-5.40;99.90
10282;DHT22;5186;59.472;18.048;2023-04-01T04:06:27;-5.50;99.90
10282;DHT22;5186;59.472;18.048;2023-04-01T04:08:52;-5.50;99.90
10282;DHT22;5186;59.472;18.048;2023-04-01T04:11:19;-5.50;99.90
10282;DHT22;5186;59.472;18.048;2023-04-01T04:13:46;-5.50;99.90
10282;DHT22;5186;59.472;18.048;2023-04-01T04:16:13;-5.60;99.90
10282;DHT22;5186;59.472;18.048;2023-04-01T04:18:39;-5.60;99.90
10282;DHT22;5186;59.472;18.048;2023-04-01T04:21:05;-5.70;99.90
10282;DHT22;5186;59.472;18.048;2023-04-01T04:23:31;-5.60;99.90
10282;DHT22;5186;59.472;18.048;2023-04-01T04:26:01;-5.60;99.90
10282;DHT22;5186;59.472;18.048;2023-04-01T04:28:27;-5.70;99.90
10282;DHT22;5186;59.472;18.048;2023-04-01T04:30:54;-5.70;99.90
10282;DHT22;5186;59.472;18.048;2023-04-01T04:33:20;-5.70;99.90
10282;DHT22;5186;59.472;18.048;2023-04-01T04:35:46;-5.70;99.90
10282;DHT22;5186;59.472;18.048;2023-04-01T04:38:11;-5.80;99.90
10282;DHT22;5186;59.472;18.048;2023-04-01T04:40:38;-5.80;99.90
10282;DHT22;5186;59.472;18.048;2023-04-01T04:43:04;-5.70;99.90
10282;DHT22;5186;59.472;18.048;2023-04-01T04:45:30;-5.80;99.90
10282;DHT22;5186;59.472;18.048;2023-04-01T04:47:56;-5.70;99.90
10282;DHT22;5186;59.472;18.048;2023-04-01T04:50:21;-5.70;99.90
10282;DHT22;5186;59.472;18.048;2023-04-01T04:52:47;-5.80;99.90
10282;DHT22;5186;59.472;18.048;2023-04-01T04:55:13;-5.80;99.90
10282;DHT22;5186;59.472;18.048;2023-04-01T04:57:40;-5.70;99.90
10282;DHT22;5186;59.472;18.048;2023-04-01T05:00:06;-5.80;99.90
10282;DHT22;5186;59.472;18.048;2023-04-01T05:02:33;-5.80;99.90
10282;DHT22;5186;59.472;18.048;2023-04-01T05:04:58;-5.70;99.90
10282;DHT22;5186;59.472;18.048;2023-04-01T05:07:24;-5.70;99.90
10282;DHT22;5186;59.472;18.048;2023-04-01T05:09:49;-5.70;99.90
10282;DHT22;5186;59.472;18.048;2023-04-01T05:12:15;-5.60;99.90
10282;DHT22;5186;59.472;18.048;2023-04-01T05:14:41;-5.50;99.90
10282;DHT22;5186;59.472;18.048;2023-04-01T05:17:11;-5.50;99.90
10282;DHT22;5186;59.472;18.048;2023-04-01T05:19:37;-5.40;99.90
10282;DHT22;5186;59.472;18.048;2023-04-01T05:22:04;-5.40;99.90
10282;DHT22;5186;59.472;18.048;2023-04-01T05:24:30;-5.30;99.90
10282;DHT22;5186;59.472;18.048;2023-04-01T05:26:56;-5.20;99.90
10282;DHT22;5186;59.472;18.048;2023-04-01T05:29:23;-5.10;99.90
10282;DHT22;5186;59.472;18.048;2023-04-01T05:31:48;-5.00;99.90
10282;DHT22;5186;59.472;18.048;2023-04-01T05:34:14;-4.90;99.90
10282;DHT22;5186;59.472;18.048;2023-04-01T05:36:40;-4.80;99.90
10282;DHT22;5186;59.472;18.048;2023-04-01T05:39:07;-4.60;99.90
10282;DHT22;5186;59.472;18.048;2023-04-01T05:41:35;-4.60;99.90
10282;DHT22;5186;59.472;18.048;2023-04-01T05:44:00;-4.40;99.90
10282;DHT22;5186;59.472;18.048;2023-04-01T05:46:26;-4.30;99.90
10282;DHT22;5186;59.472;18.048;2023-04-01T05:48:52;-4.20;99.90
10282;DHT22;5186;59.472;18.048;2023-04-01T05:51:17;-4.10;99.90
10282;DHT22;5186;59.472;18.048;2023-04-01T05:53:43;-4.00;99.90
10282;DHT22;5186;59.472;18.048;2023-04-01T05:56:08;-4.00;99.90
10282;DHT22;5186;59.472;18.048;2023-04-01T05:58:35;-3.90;99.90
10282;DHT22;5186;59.472;18.048;2023-04-01T06:01:03;-3.80;99.90
10282;DHT22;5186;59.472;18.048;2023-04-01T06:03:29;-3.70;99.90
10282;DHT22;5186;59.472;18.048;2023-04-01T06:05:54;-3.60;99.90
10282;DHT22;5186;59.472;18.048;2023-04-01T06:08:20;-3.60;99.90
10282;DHT22;5186;59.472;18.048;2023-04-01T06:11:35;-3.50;99.90
10282;DHT22;5186;59.472;18.048;2023-04-01T06:13:41;-3.40;99.90
10282;DHT22;5186;59.472;18.048;2023-04-01T06:16:23;-3.30;99.90
10282;DHT22;5186;59.472;18.048;2023-04-01T06:24:13;-3.10;99.90
10282;DHT22;5186;59.472;18.048;2023-04-01T06:40:44;-2.60;99.90
10282;DHT22;5186;59.472;18.048;2023-04-01T06:43:25;-2.50;99.90
10282;DHT22;5186;59.472;18.048;2023-04-01T06:53:56;-2.20;99.90
10282;DHT22;5186;59.472;18.048;2023-04-01T06:56:26;-2.10;99.90
10282;DHT22;5186;59.472;18.048;2023-04-01T06:59:00;-2.00;99.90
10282;DHT22;5186;59.472;18.048;2023-04-01T07:01:35;-1.90;99.90
10282;DHT22;5186;59.472;18.048;2023-04-01T07:06:36;-1.70;99.90
10282;DHT22;5186;59.472;18.048;2023-04-01T07:09:12;-1.60;99.90
10282;DHT22;5186;59.472;18.048;2023-04-01T07:11:40;-1.50;99.90
10282;DHT22;5186;59.472;18.048;2023-04-01T07:16:56;-1.30;99.90
10282;DHT22;5186;59.472;18.048;2023-04-01T07:24:46;-1.00;99.90
10282;DHT22;5186;59.472;18.048;2023-04-01T07:27:14;-0.90;99.90
10282;DHT22;5186;59.472;18.048;2023-04-01T07:29:40;-0.80;99.90
10282;DHT22;5186;59.472;18.048;2023-04-01T07:37:30;-0.50;99.90
10282;DHT22;5186;59.472;18.048;2023-04-01T07:40:21;-0.40;99.90
10282;DHT22;5186;59.472;18.048;2023-04-01T07:49:01;-0.10;99.90
10282;DHT22;5186;59.472;18.048;2023-04-01T07:51:42;0.00;99.90
10282;DHT22;5186;59.472;18.048;2023-04-01T07:57:15;0.20;99.90
10282;DHT22;5186;59.472;18.048;2023-04-01T08:05:31;0.50;99.90
10282;DHT22;5186;59.472;18.048;2023-04-01T08:08:15;0.70;99.90
10282;DHT22;5186;59.472;18.048;2023-04-01T08:19:38;1.10;99.90
10282;DHT22;5186;59.472;18.048;2023-04-01T08:22:20;1.20;99.90
10282;DHT22;5186;59.472;18.048;2023-04-01T08:24:48;1.40;99.90
10282;DHT22;5186;59.472;18.048;2023-04-01T08:27:23;1.40;99.90
10282;DHT22;5186;59.472;18.048;2023-04-01T08:29:58;1.50;99.90
10282;DHT22;5186;59.472;18.048;2023-04-01T08:32:29;1.60;99.90
10282;DHT22;5186;59.472;18.048;2023-04-01T08:37:35;1.80;99.90
10282;DHT22;5186;59.472;18.048;2023-04-01T08:45:21;2.00;99.90
10282;DHT22;5186;59.472;18.048;2023-04-01T08:47:56;2.10;99.90
10282;DHT22;5186;59.472;18.048;2023-04-01T08:50:58;2.20;99.90
10282;DHT22;5186;59.472;18.048;2023-04-01T08:53:59;2.30;99.90
10282;DHT22;5186;59.472;18.048;2023-04-01T09:00:00;2.40;99.90
10282;DHT22;5186;59.472;18.048;2023-04-01T09:04:50;2.60;99.90
10282;DHT22;5186;59.472;18.048;2023-04-01T09:35:42;3.40;99.90
10282;DHT22;5186;59.472;18.048;2023-04-01T09:38:28;3.40;99.90
10282;DHT22;5186;59.472;18.048;2023-04-01T09:46:04;3.60;99.90
10282;DHT22;5186;59.472;18.048;2023-04-01T09:48:58;3.70;99.90
10282;DHT22;5186;59.472;18.048;2023-04-01T10:44:55;4.90;99.90
10282;DHT22;5186;59.472;18.048;2023-04-01T10:49:43;5.00;99.90
10282;DHT22;5186;59.472;18.048;2023-04-01T10:58:20;5.10;99.90
10282;DHT22;5186;59.472;18.048;2023-04-01T11:07:08;5.30;99.90
10282;DHT22;5186;59.472;18.048;2023-04-01T11:12:23;5.30;99.90
10282;DHT22;5186;59.472;18.048;2023-04-01T11:34:01;5.50;99.90
10282;DHT22;5186;59.472;18.048;2023-04-01T11:36:50;5.50;99.90
10282;DHT22;5186;59.472;18.048;2023-04-01T11:42:26;5.50;99.90
10282;DHT22;5186;59.472;18.048;2023-04-01T11:45:38;5.50;99.90
10282;DHT22;5186;59.472;18.048;2023-04-01T11:51:08;5.60;99.90
10282;DHT22;5186;59.472;18.048;2023-04-01T11:59:46;5.60;99.90
10282;DHT22;5186;59.472;18.048;2023-04-01T12:05:18;5.60;99.90
10282;DHT22;5186;59.472;18.048;2023-04-01T12:19:04;5.60;99.90
10282;DHT22;5186;59.472;18.048;2023-04-01T12:21:37;5.60;99.90
10282;DHT22;5186;59.472;18.048;2023-04-01T12:32:09;5.60;99.90
10282;DHT22;5186;59.472;18.048;2023-04-01T12:37:26;5.60;99.90
10282;DHT22;5186;59.472;18.048;2023-04-01T12:40:01;5.50;99.90
10282;DHT22;5186;59.472;18.048;2023-04-01T12:42:51;5.60;99.90
10282;DHT22;5186;59.472;18.048;2023-04-01T12:45:29;5.60;99.90
10282;DHT22;5186;59.472;18.048;2023-04-01T12:57:10;5.50;99.90
10282;DHT22;5186;59.472;18.048;2023-04-01T13:07:54;5.50;99.90
10282;DHT22;5186;59.472;18.048;2023-04-01T13:21:10;5.50;99.90
10282;DHT22;5186;59.472;18.048;2023-04-01T13:23:52;5.50;99.90
10282;DHT22;5186;59.472;18.048;2023-04-01T13:26:36;5.40;99.90
10282;DHT22;5186;59.472;18.048;2023-04-01T13:43:15;5.30;99.90
10282;DHT22;5186;59.472;18.048;2023-04-01T13:59:40;5.30;99.90
10282;DHT22;5186;59.472;18.048;2023-04-01T14:05:09;5.40;99.90
10282;DHT22;5186;59.472;18.048;2023-04-01T14:07:51;5.40;99.90
10282;DHT22;5186;59.472;18.048;2023-04-01T14:13:41;5.40;99.90
10282;DHT22;5186;59.472;18.048;2023-04-01T14:24:31;5.30;99.90
10282;DHT22;5186;59.472;18.048;2023-04-01T14:35:12;5.30;99.90
10282;DHT22;5186;59.472;18.048;2023-04-01T14:48:57;5.20;99.90
10282;DHT22;5186;59.472;18.048;2023-04-01T14:54:04;5.20;99.90
10282;DHT22;5186;59.472;18.048;2023-04-01T14:56:44;5.20;99.90
10282;DHT22;5186;59.472;18.048;2023-04-01T15:02:01;5.20;99.90
10282;DHT22;5186;59.472;18.048;2023-04-01T15:15:22;5.10;99.90
10282;DHT22;5186;59.472;18.048;2023-04-01T15:18:14;5.00;99.90
10282;DHT22;5186;59.472;18.048;2023-04-01T15:23:42;5.00;99.90
10282;DHT22;5186;59.472;18.048;2023-04-01T15:31:42;4.90;99.90
10282;DHT22;5186;59.472;18.048;2023-04-01T15:42:39;4.80;99.90
10282;DHT22;5186;59.472;18.048;2023-04-01T15:59:02;4.70;99.90
10282;DHT22;5186;59.472;18.048;2023-04-01T16:01:47;4.70;99.90
10282;DHT22;5186;59.472;18.048;2023-04-01T16:04:30;4.70;99.90
10282;DHT22;5186;59.472;18.048;2023-04-01T16:12:36;4.60;99.90
10282;DHT22;5186;59.472;18.048;2023-04-01T16:20:55;4.50;99.90
10282;DHT22;5186;59.472;18.048;2023-04-01T16:23:29;4.50;99.90
10282;DHT22;5186;59.472;18.048;2023-04-01T16:26:26;4.40;99.90
10282;DHT22;5186;59.472;18.048;2023-04-01T16:32:13;4.20;99.90
10282;DHT22;5186;59.472;18.048;2023-04-01T16:37:45;4.20;99.90
10282;DHT22;5186;59.472;18.048;2023-04-01T16:43:21;4.10;99.90
10282;DHT22;5186;59.472;18.048;2023-04-01T16:48:57;4.00;99.90
10282;DHT22;5186;59.472;18.048;2023-04-01T16:51:24;3.90;99.90
10282;DHT22;5186;59.472;18.048;2023-04-01T16:59:38;3.80;99.90
10282;DHT22;5186;59.472;18.048;2023-04-01T17:23:38;3.30;99.90
10282;DHT22;5186;59.472;18.048;2023-04-01T17:29:06;3.20;99.90
10282;DHT22;5186;59.472;18.048;2023-04-01T17:32:13;3.20;99.90
10282;DHT22;5186;59.472;18.048;2023-04-01T17:37:25;3.10;99.90
10282;DHT22;5186;59.472;18.048;2023-04-01T17:45:44;3.10;99.90
10282;DHT22;5186;59.472;18.048;2023-04-01T17:48:24;3.00;99.90
10282;DHT22;5186;59.472;18.048;2023-04-01T17:51:10;3.00;99.90
10282;DHT22;5186;59.472;18.048;2023-04-01T18:05:17;2.60;99.90
10282;DHT22;5186;59.472;18.048;2023-04-01T18:16:26;2.30;99.90
10282;DHT22;5186;59.472;18.048;2023-04-01T18:19:17;2.20;99.90
10282;DHT22;5186;59.472;18.048;2023-04-01T18:21:47;2.10;99.90
10282;DHT22;5186;59.472;18.048;2023-04-01T18:24:18;2.10;99.90
10282;DHT22;5186;59.472;18.048;2023-04-01T18:29:48;2.00;99.90
10282;DHT22;5186;59.472;18.048;2023-04-01T18:32:36;2.00;99.90
10282;DHT22;5186;59.472;18.048;2023-04-01T18:35:27;1.90;99.90
10282;DHT22;5186;59.472;18.048;2023-04-01T18:45:56;1.80;99.90
10282;DHT22;5186;59.472;18.048;2023-04-01T18:48:41;1.70;99.90
10282;DHT22;5186;59.472;18.048;2023-04-01T18:54:33;1.60;99.90
10282;DHT22;5186;59.472;18.048;2023-04-01T18:57:14;1.60;99.90
10282;DHT22;5186;59.472;18.048;2023-04-01T18:59:53;1.50;99.90
10282;DHT22;5186;59.472;18.048;2023-04-01T19:02:29;1.50;99.90
10282;DHT22;5186;59.472;18.048;2023-04-01T19:05:09;1.50;99.90
10282;DHT22;5186;59.472;18.048;2023-04-01T19:07:56;1.50;99.90
10282;DHT22;5186;59.472;18.048;2023-04-01T19:10:27;1.50;99.90
10282;DHT22;5186;59.472;18.048;2023-04-01T19:21:29;1.30;99.90
10282;DHT22;5186;59.472;18.048;2023-04-01T19:24:32;1.40;99.90
10282;DHT22;5186;59.472;18.048;2023-04-01T19:29:58;1.30;99.90
10282;DHT22;5186;59.472;18.048;2023-04-01T19:32:59;1.20;99.90
10282;DHT22;5186;59.472;18.048;2023-04-01T19:38:36;1.20;99.90
10282;DHT22;5186;59.472;18.048;2023-04-01T19:41:30;1.20;99.90
10282;DHT22;5186;59.472;18.048;2023-04-01T19:44:28;1.10;99.90
10282;DHT22;5186;59.472;18.048;2023-04-01T19:49:36;1.10;99.90
10282;DHT22;5186;59.472;18.048;2023-04-01T19:52:20;1.00;99.90
10282;DHT22;5186;59.472;18.048;2023-04-01T20:00:15;0.90;99.90
10282;DHT22;5186;59.472;18.048;2023-04-01T20:19:40;0.70;99.90
10282;DHT22;5186;59.472;18.048;2023-04-01T20:25:24;0.70;99.90
10282;DHT22;5186;59.472;18.048;2023-04-01T20:27:58;0.70;99.90
10282;DHT22;5186;59.472;18.048;2023-04-01T20:30:42;0.60;99.90
10282;DHT22;5186;59.472;18.048;2023-04-01T20:36:50;0.50;99.90
10282;DHT22;5186;59.472;18.048;2023-04-01T20:39:44;0.50;99.90
10282;DHT22;5186;59.472;18.048;2023-04-01T20:50:53;0.50;99.90
10282;DHT22;5186;59.472;18.048;2023-04-01T20:53:36;0.40;99.90
10282;DHT22;5186;59.472;18.048;2023-04-01T20:59:32;0.40;99.90
10282;DHT22;5186;59.472;18.048;2023-04-01T21:02:20;0.40;99.90
10282;DHT22;5186;59.472;18.048;2023-04-01T21:08:02;0.30;99.90
10282;DHT22;5186;59.472;18.048;2023-04-01T21:10:50;0.30;99.90
10282;DHT22;5186;59.472;18.048;2023-04-01T21:35:51;-0.10;99.90
10282;DHT22;5186;59.472;18.048;2023-04-01T21:52:55;-0.30;99.90
10282;DHT22;5186;59.472;18.048;2023-04-01T21:58:49;-0.40;99.90
10282;DHT22;5186;59.472;18.048;2023-04-01T22:04:08;-0.40;99.90
10282;DHT22;5186;59.472;18.048;2023-04-01T22:06:50;-0.50;99.90
10282;DHT22;5186;59.472;18.048;2023-04-01T22:09:28;-0.50;99.90
10282;DHT22;5186;59.472;18.048;2023-04-01T22:12:02;-0.60;99.90
10282;DHT22;5186;59.472;18.048;2023-04-01T22:14:58;-0.60;99.90
10282;DHT22;5186;59.472;18.048;2023-04-01T22:17:50;-0.60;99.90
10282;DHT22;5186;59.472;18.048;2023-04-01T22:20:28;-0.70;99.90
10282;DHT22;5186;59.472;18.048;2023-04-01T22:23:12;-0.70;99.90
10282;DHT22;5186;59.472;18.048;2023-04-01T22:34:27;-0.80;99.90
10282;DHT22;5186;59.472;18.048;2023-04-01T22:40:07;-0.90;99.90
10282;DHT22;5186;59.472;18.048;2023-04-01T22:42:45;-0.80;99.90
10282;DHT22;5186;59.472;18.048;2023-04-01T22:45:28;-0.90;99.90
10282;DHT22;5186;59.472;18.048;2023-04-01T22:48:18;-0.90;99.90
10282;DHT22;5186;59.472;18.048;2023-04-01T22:56:01;-0.90;99.90
10282;DHT22;5186;59.472;18.048;2023-04-01T22:58:34;-0.90;99.90
10282;DHT22;5186;59.472;18.048;2023-04-01T23:01:06;-0.90;99.90
10282;DHT22;5186;59.472;18.048;2023-04-01T23:03:40;-0.90;99.90
10282;DHT22;5186;59.472;18.048;2023-04-01T23:06:06;-0.90;99.90
10282;DHT22;5186;59.472;18.048;2023-04-01T23:11:09;-1.00;99.90
10282;DHT22;5186;59.472;18.048;2023-04-01T23:13:53;-1.10;99.90
10282;DHT22;5186;59.472;18.048;2023-04-01T23:16:45;-1.10;99.90
10282;DHT22;5186;59.472;18.048;2023-04-01T23:22:07;-1.20;99.90
10282;DHT22;5186;59.472;18.048;2023-04-01T23:24:50;-1.30;99.90
10282;DHT22;5186;59.472;18.048;2023-04-01T23:27:23;-1.40;99.90
10282;DHT22;5186;59.472;18.048;2023-04-01T23:29:50;-1.30;99.90
10282;DHT22;5186;59.472;18.048;2023-04-01T23:32:24;-1.30;99.90
10282;DHT22;5186;59.472;18.048;2023-04-01T23:34:56;-1.30;99.90
10282;DHT22;5186;59.472;18.048;2023-04-01T23:37:23;-1.30;99.90
10282;DHT22;5186;59.472;18.048;2023-04-01T23:39:51;-1.40;99.90
10282;DHT22;5186;59.472;18.048;2023-04-01T23:42:24;-1.40;99.90
10282;DHT22;5186;59.472;18.048;2023-04-01T23:44:57;-1.40;99.90
10282;DHT22;5186;59.472;18.048;2023-04-01T23:47:30;-1.50;99.90
10282;DHT22;5186;59.472;18.048;2023-04-01T23:49:59;-1.50;99.90
10282;DHT22;5186;59.472;18.048;2023-04-01T23:52:40;-1.50;99.90
